Time;durP1;ratioP1;P1;durP2;ratioP2;P2;SDS_P1;SDS_P2;PMS_P1;PMS_P2;Temp;Humidity;BMP_temperature;BMP_pressure;BME280_temperature;BME280_humidity;BME280_pressure;Samples;Min_cycle;Max_cycle;Signal;HPM_P1;HPM_P2
2024/04/01 00:00:48;;;;;;;77.20;19.00;;;;;;;13.68;51.77;98739.90;111256;1254;22046;-71
2024/04/01 00:03:37;;;;;;;69.80;19.20;;;;;;;13.65;51.81;98737.78;111206;1241;23735;-72
2024/04/01 00:06:05;;;;;;;72.10;20.50;;;;;;;13.64;51.78;98741.40;111202;1254;23724;-71
2024/04/01 00:08:34;;;;;;;65.50;17.90;;;;;;;13.61;51.91;98743.12;111255;1254;21960;-71
2024/04/01 00:11:03;;;;;;;71.20;18.40;;;;;;;13.60;51.86;98741.81;111250;1254;23614;-71
2024/04/01 00:13:32;;;;;;;78.30;18.90;;;;;;;13.59;51.84;98734.33;111239;1254;21950;-71
2024/04/01 00:16:00;;;;;;;73.40;19.20;;;;;;;13.58;51.92;98733.01;111252;1254;21958;-71
2024/04/01 00:18:29;;;;;;;73.10;22.90;;;;;;;13.57;51.94;98734.70;111271;1254;23683;-72
2024/04/01 00:20:58;;;;;;;60.20;20.10;;;;;;;13.55;51.87;98737.62;111291;1254;21992;-72
2024/04/01 00:23:27;;;;;;;87.10;22.10;;;;;;;13.51;51.81;98737.85;111246;1254;21955;-71
2024/04/01 00:25:55;;;;;;;71.80;19.30;;;;;;;13.49;51.70;98738.17;111261;1254;23582;-71
2024/04/01 00:28:24;;;;;;;76.80;19.10;;;;;;;13.50;51.85;98745.90;111272;1254;23693;-71
2024/04/01 00:30:53;;;;;;;67.90;19.10;;;;;;;13.51;51.81;98746.64;111244;1254;21968;-71
2024/04/01 00:33:22;;;;;;;80.10;18.90;;;;;;;13.53;51.96;98747.90;111278;1254;22053;-71
2024/04/01 00:35:50;;;;;;;79.30;19.10;;;;;;;13.54;51.86;98755.91;111247;1241;21955;-71
2024/04/01 00:38:19;;;;;;;66.50;18.10;;;;;;;13.53;51.81;98764.34;111229;1254;21957;-71
2024/04/01 00:40:47;;;;;;;70.00;16.60;;;;;;;13.52;51.91;98767.30;111251;1254;22761;-71
2024/04/01 00:43:16;;;;;;;77.30;17.20;;;;;;;13.50;51.80;98769.78;111212;1254;23562;-71
2024/04/01 00:45:48;;;;;;;76.60;17.70;;;;;;;13.46;51.86;98772.29;111263;1254;21952;-71
2024/04/01 00:48:17;;;;;;;63.80;15.90;;;;;;;13.41;51.86;98776.86;111300;1254;21963;-70
2024/04/01 00:50:50;;;;;;;67.60;17.00;;;;;;;13.37;51.97;98775.07;111313;1254;22303;-71
2024/04/01 00:53:20;;;;;;;71.70;19.60;;;;;;;13.33;52.10;98774.90;111368;1254;21959;-71
2024/04/01 00:55:48;;;;;;;77.10;19.80;;;;;;;13.30;52.16;98767.56;111253;1254;21962;-71
2024/04/01 00:58:18;;;;;;;56.90;17.20;;;;;;;13.26;52.24;98760.34;111316;1254;23019;-71
2024/04/01 01:00:48;;;;;;;73.30;20.70;;;;;;;13.23;52.29;98756.55;111298;1254;21951;-71
2024/04/01 01:03:17;;;;;;;74.80;18.60;;;;;;;13.21;52.40;98755.14;111341;1254;23777;-70
2024/04/01 01:05:46;;;;;;;74.90;18.20;;;;;;;13.20;52.74;98759.50;111270;1254;22424;-71
2024/04/01 01:08:15;;;;;;;65.00;18.10;;;;;;;13.17;52.84;98758.60;111291;1254;22435;-71
2024/04/01 01:10:44;;;;;;;66.10;16.80;;;;;;;13.16;52.85;98757.30;111207;1254;21959;-70
2024/04/01 01:13:16;;;;;;;70.40;17.00;;;;;;;13.16;52.64;98756.44;111240;1254;24406;-71
2024/04/01 01:15:45;;;;;;;67.90;16.60;;;;;;;13.12;52.91;98752.55;111251;1254;22014;-71
2024/04/01 01:18:14;;;;;;;68.80;17.90;;;;;;;13.09;53.07;98755.04;111268;1254;24320;-71
2024/04/01 01:20:43;;;;;;;85.80;19.90;;;;;;;13.06;53.06;98754.99;111272;1254;21962;-71
2024/04/01 01:23:12;;;;;;;72.00;17.50;;;;;;;13.05;53.09;98755.85;111228;1254;21952;-71
2024/04/01 01:25:40;;;;;;;64.00;17.20;;;;;;;13.02;53.07;98751.31;111250;1254;22144;-71
2024/04/01 01:28:09;;;;;;;74.50;17.90;;;;;;;13.00;53.17;98743.02;111208;1254;21953;-72
2024/04/01 01:30:37;;;;;;;72.60;18.60;;;;;;;12.98;53.38;98740.66;111246;1254;22348;-72
2024/04/01 01:33:07;;;;;;;66.00;16.10;;;;;;;12.96;53.45;98735.52;111281;1254;24298;-72
2024/04/01 01:35:37;;;;;;;67.30;16.50;;;;;;;12.97;53.79;98730.52;111284;1254;21967;-72
2024/04/01 01:38:06;;;;;;;61.10;17.70;;;;;;;12.97;53.61;98728.34;111209;1254;23027;-73
2024/04/01 01:40:35;;;;;;;62.70;18.30;;;;;;;12.96;53.63;98727.38;111268;1254;21975;-72
2024/04/01 01:43:04;;;;;;;67.20;17.80;;;;;;;12.95;53.63;98725.88;111316;1254;23816;-72
2024/04/01 01:45:32;;;;;;;73.20;19.40;;;;;;;12.92;53.85;98732.27;112123;1246;21996;-72
2024/04/01 01:48:01;;;;;;;68.30;17.50;;;;;;;12.90;53.71;98728.60;112646;1252;22160;-72
2024/04/01 01:50:30;;;;;;;71.20;19.00;;;;;;;12.88;54.13;98719.98;111324;1254;23049;-72
2024/04/01 01:52:59;;;;;;;70.00;16.40;;;;;;;12.87;54.22;98720.23;111283;1254;23663;-72
2024/04/01 01:55:28;;;;;;;55.30;14.70;;;;;;;12.88;53.96;98722.09;111246;1254;21984;-71
2024/04/01 01:57:56;;;;;;;58.50;15.80;;;;;;;12.88;53.90;98726.27;111318;1252;21943;-71
2024/04/01 02:00:25;;;;;;;62.70;17.10;;;;;;;12.89;54.12;98721.05;111293;1254;23601;-71
2024/04/01 02:02:54;;;;;;;60.80;16.30;;;;;;;12.90;54.29;98717.63;111289;1254;23673;-71
2024/04/01 02:05:22;;;;;;;51.10;14.50;;;;;;;12.90;54.10;98718.50;111249;1254;22051;-70
2024/04/01 02:07:51;;;;;;;63.20;15.10;;;;;;;12.89;54.15;98718.25;111212;1254;21960;-70
2024/04/01 02:10:23;;;;;;;47.20;13.40;;;;;;;12.88;54.25;98718.55;111235;1254;21992;-72
2024/04/01 02:12:52;;;;;;;62.70;14.80;;;;;;;12.87;54.31;98723.09;111253;1254;22289;-71
2024/04/01 02:15:23;;;;;;;61.40;14.40;;;;;;;12.85;54.25;98720.13;111259;1254;22753;-72
2024/04/01 02:17:51;;;;;;;57.40;13.50;;;;;;;12.83;54.39;98718.38;111395;1254;21966;-71
2024/04/01 02:20:20;;;;;;;63.50;14.60;;;;;;;12.79;54.70;98717.89;111262;1254;22035;-71
2024/04/01 02:22:48;;;;;;;60.40;15.90;;;;;;;12.79;54.42;98717.93;111265;1241;23749;-72
2024/04/01 02:25:17;;;;;;;51.50;12.70;;;;;;;12.79;54.64;98721.84;111123;1254;22417;-71
2024/04/01 02:27:49;;;;;;;62.70;13.90;;;;;;;12.79;54.66;98713.55;111238;1254;22171;-72
2024/04/01 02:30:19;;;;;;;57.60;15.70;;;;;;;12.77;54.88;98706.42;111271;1254;22867;-72
2024/04/01 02:32:48;;;;;;;82.10;15.40;;;;;;;12.75;54.77;98703.55;111265;1254;22734;-74
2024/04/01 02:35:17;;;;;;;55.70;13.50;;;;;;;12.73;55.01;98701.59;111250;1254;22735;-71
2024/04/01 02:37:45;;;;;;;62.20;13.50;;;;;;;12.70;54.88;98701.91;111272;1252;21951;-71
2024/04/01 02:40:14;;;;;;;57.10;13.50;;;;;;;12.67;54.79;98704.16;111290;1254;23570;-70
2024/04/01 02:42:43;;;;;;;57.90;13.80;;;;;;;12.64;55.01;98702.52;111269;1254;23448;-72
2024/04/01 02:45:11;;;;;;;53.00;13.10;;;;;;;12.63;55.25;98702.31;111233;1254;22003;-72
2024/04/01 02:47:40;;;;;;;72.20;12.80;;;;;;;12.63;55.30;98698.94;111227;1254;22572;-72
2024/04/01 02:50:08;;;;;;;54.70;12.60;;;;;;;12.64;55.33;98694.83;111236;1254;22422;-70
2024/04/01 02:52:37;;;;;;;51.20;12.90;;;;;;;12.63;55.42;98691.69;111289;1254;22969;-70
2024/04/01 02:55:09;;;;;;;55.70;13.90;;;;;;;12.61;55.25;98687.64;111286;1254;22574;-71
2024/04/01 02:57:38;;;;;;;52.60;15.90;;;;;;;12.61;55.19;98684.21;111285;1254;21958;-70
2024/04/01 03:00:07;;;;;;;52.80;12.60;;;;;;;12.60;55.04;98681.42;111271;1254;21954;-71
2024/04/01 03:02:48;;;;;;;54.70;12.70;;;;;;;12.58;55.32;98679.90;111298;1254;21964;-71
2024/04/01 03:05:18;;;;;;;59.90;12.60;;;;;;;12.56;55.20;98677.84;111334;1254;23643;-71
2024/04/01 03:07:50;;;;;;;53.00;12.50;;;;;;;12.54;55.39;98677.79;111256;1254;22044;-71
2024/04/01 03:10:19;;;;;;;50.50;13.50;;;;;;;12.52;55.47;98680.50;111308;1254;23020;-71
2024/04/01 03:12:48;;;;;;;46.00;12.40;;;;;;;12.51;55.89;98679.94;111262;1254;21983;-71
2024/04/01 03:15:16;;;;;;;56.60;14.20;;;;;;;12.48;55.94;98680.86;111278;1252;22408;-71
2024/04/01 03:17:45;;;;;;;51.80;14.70;;;;;;;12.47;55.96;98682.05;111409;1254;23598;-71
2024/04/01 03:20:14;;;;;;;52.40;12.10;;;;;;;12.46;55.90;98677.94;111260;1254;23012;-72
2024/04/01 03:22:42;;;;;;;46.80;11.70;;;;;;;12.43;56.08;98676.33;111235;1254;22123;-71
2024/04/01 03:25:11;;;;;;;50.90;12.30;;;;;;;12.40;56.06;98673.61;111255;1252;23750;-71
2024/04/01 03:27:40;;;;;;;53.30;12.90;;;;;;;12.35;56.36;98667.77;111255;1244;21958;-70
2024/04/01 03:30:10;;;;;;;63.80;13.40;;;;;;;12.30;56.44;98663.14;111252;1254;21964;-72
2024/04/01 03:32:38;;;;;;;53.80;12.40;;;;;;;12.26;56.57;98664.30;111317;1254;21966;-71
2024/04/01 03:35:07;;;;;;;60.50;15.20;;;;;;;12.24;56.67;98667.33;111284;1254;22420;-72
2024/04/01 03:37:36;;;;;;;56.40;14.10;;;;;;;12.22;57.08;98667.41;111236;1251;22047;-71
2024/04/01 03:40:08;;;;;;;50.90;14.30;;;;;;;12.19;56.84;98661.13;111304;1254;23582;-72
2024/04/01 03:42:37;;;;;;;56.00;13.60;;;;;;;12.15;57.11;98665.00;111301;1254;22161;-73
2024/04/01 03:45:06;;;;;;;50.80;13.80;;;;;;;12.11;56.75;98662.34;111269;1254;21981;-73
2024/04/01 03:47:35;;;;;;;57.40;14.60;;;;;;;12.08;56.78;98659.89;111265;1254;21952;-73
2024/04/01 03:50:05;;;;;;;42.20;12.50;;;;;;;12.05;57.17;98657.55;111286;1254;22180;-71
2024/04/01 03:52:35;;;;;;;45.80;11.00;;;;;;;12.03;57.39;98656.52;111378;1254;22501;-71
2024/04/01 03:55:05;;;;;;;53.30;11.80;;;;;;;12.02;57.59;98661.57;111250;1254;23459;-72
2024/04/01 03:57:34;;;;;;;52.10;12.80;;;;;;;12.03;57.56;98668.69;111283;1254;21962;-71
2024/04/01 04:00:04;;;;;;;59.60;14.50;;;;;;;12.03;57.56;98676.42;111231;1254;21952;-72
2024/04/01 04:02:32;;;;;;;58.20;12.90;;;;;;;12.04;57.36;98681.46;111272;1254;23397;-71
2024/04/01 04:05:01;;;;;;;51.90;12.30;;;;;;;12.04;57.39;98682.69;111284;1254;24363;-71
2024/04/01 04:07:30;;;;;;;53.00;12.50;;;;;;;12.02;57.54;98685.65;111297;1254;21957;-71
2024/04/01 04:09:59;;;;;;;59.60;12.70;;;;;;;12.01;57.50;98688.06;111307;1254;24443;-71
2024/04/01 04:12:28;;;;;;;54.40;13.80;;;;;;;12.00;57.81;98687.50;111298;1254;22002;-71
2024/04/01 04:15:05;;;;;;;56.00;13.40;;;;;;;11.99;57.81;98692.51;111283;1254;23762;-71
2024/04/01 04:17:34;;;;;;;55.90;13.60;;;;;;;11.99;57.71;98697.14;111282;1254;22735;-71
2024/04/01 04:20:04;;;;;;;55.00;11.40;;;;;;;12.01;57.53;98703.81;111297;1254;24378;-72
2024/04/01 04:22:33;;;;;;;49.30;11.70;;;;;;;12.04;57.79;98705.66;111283;1254;21985;-73
2024/04/01 04:25:01;;;;;;;46.00;12.70;;;;;;;12.07;57.67;98705.82;111246;1254;23105;-72
2024/04/01 04:27:31;;;;;;;38.90;11.30;;;;;;;12.09;57.82;98704.24;111286;1254;22006;-71
2024/04/01 04:30:00;;;;;;;51.20;10.90;;;;;;;12.09;57.96;98698.71;112111;1254;21998;-72
2024/04/01 04:32:30;;;;;;;44.70;10.70;;;;;;;12.07;57.53;98699.69;112877;1254;21984;-72
2024/04/01 04:34:59;;;;;;;48.60;11.30;;;;;;;12.08;57.75;98702.73;111253;1254;21966;-71
2024/04/01 04:37:28;;;;;;;56.20;12.40;;;;;;;12.12;57.64;98702.10;111292;1254;21966;-71
2024/04/01 04:39:56;;;;;;;54.40;12.50;;;;;;;12.18;57.64;98700.65;111328;1254;23780;-71
2024/04/01 04:42:25;;;;;;;54.60;12.40;;;;;;;12.22;57.64;98704.13;111334;1254;23666;-72
2024/04/01 04:44:54;;;;;;;48.50;11.60;;;;;;;12.24;57.60;98701.08;111225;1254;21974;-74
2024/04/01 04:47:23;;;;;;;47.80;11.40;;;;;;;12.28;57.38;98699.97;111226;1252;24442;-72
2024/04/01 04:49:51;;;;;;;44.80;11.90;;;;;;;12.32;57.13;98696.15;111235;1254;23035;-74
2024/04/01 04:52:20;;;;;;;39.60;10.50;;;;;;;12.36;57.23;98699.83;111239;1254;23682;-72
2024/04/01 04:54:50;;;;;;;42.30;10.90;;;;;;;12.40;57.24;98699.39;111216;1254;22240;-71
2024/04/01 04:57:19;;;;;;;61.90;12.40;;;;;;;12.46;57.29;98692.20;111287;1252;21966;-71
2024/04/01 04:59:48;;;;;;;42.70;10.10;;;;;;;12.53;57.10;98693.12;111344;1254;21955;-71
2024/04/01 05:02:16;;;;;;;54.50;10.80;;;;;;;12.60;56.76;98696.29;111278;1254;23566;-68
2024/04/01 05:04:46;;;;;;;48.20;12.60;;;;;;;12.66;56.65;98693.15;111285;1254;22730;-70
2024/04/01 05:07:14;;;;;;;38.80;10.30;;;;;;;12.72;56.54;98690.02;111271;1254;22484;-71
2024/04/01 05:09:43;;;;;;;46.70;11.90;;;;;;;12.75;56.42;98686.33;111283;1254;23056;-71
2024/04/01 05:12:12;;;;;;;43.50;11.10;;;;;;;12.82;56.09;98671.38;111247;1254;21962;-72
2024/04/01 05:14:40;;;;;;;35.80;9.60;;;;;;;12.88;55.97;98666.23;111290;1254;21998;-72
2024/04/01 05:17:09;;;;;;;49.00;12.50;;;;;;;12.90;55.89;98669.04;111297;1254;21935;-70
2024/04/01 05:19:38;;;;;;;44.20;11.50;;;;;;;12.90;55.90;98662.15;111291;1254;21966;-70
2024/04/01 05:22:07;;;;;;;46.50;10.40;;;;;;;12.91;56.08;98655.50;111314;1252;21978;-71
2024/04/01 05:24:35;;;;;;;50.60;10.90;;;;;;;12.94;56.02;98648.98;111288;1254;21942;-70
2024/04/01 05:27:04;;;;;;;46.00;10.20;;;;;;;13.00;56.07;98649.44;111256;1254;21965;-71
2024/04/01 05:29:33;;;;;;;46.10;11.50;;;;;;;13.04;55.76;98647.09;111254;1254;22973;-71
2024/04/01 05:32:02;;;;;;;45.70;12.80;;;;;;;13.08;55.71;98634.45;111227;1254;22015;-72
2024/04/01 05:34:37;;;;;;;34.00;10.70;;;;;;;13.12;55.60;98635.21;111295;1254;22708;-74
2024/04/01 05:37:06;;;;;;;49.30;13.00;;;;;;;13.12;55.73;98643.19;111263;1254;22049;-72
2024/04/01 05:39:35;;;;;;;43.90;11.20;;;;;;;13.10;55.67;98640.67;111246;1242;23598;-72
2024/04/01 05:42:04;;;;;;;38.10;10.40;;;;;;;13.06;55.78;98632.02;111012;1254;22129;-71
2024/04/01 05:44:32;;;;;;;58.30;10.80;;;;;;;13.05;55.99;98633.77;111192;1254;21989;-71
2024/04/01 05:47:01;;;;;;;39.20;11.10;;;;;;;13.08;55.92;98640.49;111327;1254;21971;-70
2024/04/01 05:49:30;;;;;;;46.30;11.20;;;;;;;13.13;55.91;98638.71;111330;1250;21965;-70
2024/04/01 05:51:58;;;;;;;42.20;9.90;;;;;;;13.19;55.89;98640.48;111318;1254;23147;-71
2024/04/01 05:54:29;;;;;;;49.90;11.20;;;;;;;13.26;55.72;98643.55;111330;1254;22035;-71
2024/04/01 05:56:59;;;;;;;46.40;11.70;;;;;;;13.31;55.61;98644.34;111358;1254;21990;-72
2024/04/01 05:59:29;;;;;;;40.80;11.10;;;;;;;13.38;55.50;98645.04;111413;1254;21961;-70
2024/04/01 06:01:57;;;;;;;43.90;12.50;;;;;;;13.46;55.37;98644.30;111252;1241;22277;-69
2024/04/01 06:04:26;;;;;;;43.20;12.10;;;;;;;13.52;55.29;98647.18;111308;1254;22037;-69
2024/04/01 06:06:55;;;;;;;38.60;9.40;;;;;;;13.60;54.99;98654.13;111344;1254;21943;-70
2024/04/01 06:09:23;;;;;;;40.60;10.80;;;;;;;13.66;55.06;98649.56;111278;1254;23754;-71
2024/04/01 06:11:52;;;;;;;48.70;10.30;;;;;;;13.72;55.01;98643.63;111236;1254;22832;-69
2024/04/01 06:14:21;;;;;;;47.40;11.30;;;;;;;13.76;55.00;98633.41;111238;1254;21962;-71
2024/04/01 06:16:50;;;;;;;43.50;11.80;;;;;;;13.81;54.91;98625.79;111257;1254;23028;-71
2024/04/01 06:19:19;;;;;;;42.30;11.10;;;;;;;13.86;54.92;98623.66;111292;1241;21966;-69
2024/04/01 06:21:47;;;;;;;47.50;10.60;;;;;;;13.90;54.85;98631.60;111275;1254;21961;-69
2024/04/01 06:24:16;;;;;;;48.60;11.50;;;;;;;13.95;54.77;98637.49;111288;1254;21961;-71
2024/04/01 06:26:44;;;;;;;48.80;9.50;;;;;;;13.98;54.81;98629.59;111258;1254;24433;-70
2024/04/01 06:29:14;;;;;;;53.00;11.20;;;;;;;14.03;54.81;98625.70;111315;1254;23649;-70
2024/04/01 06:31:42;;;;;;;36.30;9.20;;;;;;;14.10;54.75;98626.13;111284;1254;21962;-70
2024/04/01 06:34:11;;;;;;;52.70;10.50;;;;;;;14.19;54.72;98623.87;111290;1252;22307;-71
2024/04/01 06:36:41;;;;;;;51.50;11.90;;;;;;;14.27;54.54;98617.02;111276;1254;24348;-70
2024/04/01 06:39:11;;;;;;;38.70;9.10;;;;;;;14.37;54.35;98620.89;111269;1254;21965;-70
2024/04/01 06:41:40;;;;;;;48.00;10.40;;;;;;;14.51;53.91;98618.14;111309;1254;24500;-71
2024/04/01 06:44:10;;;;;;;47.00;10.40;;;;;;;14.62;53.68;98622.10;111329;1254;23686;-71
2024/04/01 06:46:39;;;;;;;40.80;9.70;;;;;;;14.75;53.45;98627.60;111265;1254;22036;-71
2024/04/01 06:49:07;;;;;;;43.90;10.50;;;;;;;14.85;53.12;98627.40;111335;1254;22223;-70
2024/04/01 06:51:36;;;;;;;38.10;9.30;;;;;;;14.97;52.85;98622.20;111318;1254;23872;-70
2024/04/01 06:54:04;;;;;;;43.00;9.50;;;;;;;15.08;52.65;98613.88;111301;1252;21954;-70
2024/04/01 06:56:33;;;;;;;46.60;9.40;;;;;;;15.17;52.51;98603.31;111331;1254;22925;-69
2024/04/01 06:59:02;;;;;;;36.40;9.50;;;;;;;15.30;52.15;98597.92;111293;1254;23422;-69
2024/04/01 07:01:31;;;;;;;55.20;11.70;;;;;;;15.41;51.69;98602.30;111305;1254;21949;-69
2024/04/01 07:03:59;;;;;;;37.00;8.60;;;;;;;15.47;51.69;98600.52;111288;1254;23022;-70
2024/04/01 07:06:28;;;;;;;36.60;10.40;;;;;;;15.53;51.49;98601.50;111312;1254;21976;-70
2024/04/01 07:08:57;;;;;;;46.40;10.70;;;;;;;15.57;51.41;98611.80;111277;1254;23018;-69
2024/04/01 07:11:25;;;;;;;51.50;24.50;;;;;;;15.64;51.33;98611.52;111245;1254;22865;-70
2024/04/01 07:13:54;;;;;;;45.70;12.60;;;;;;;15.74;50.91;98615.95;111483;1254;22090;-70
2024/04/01 07:16:22;;;;;;;38.80;12.10;;;;;;;15.89;50.80;98614.64;112751;1254;22041;-69
2024/04/01 07:18:51;;;;;;;51.90;11.60;;;;;;;16.07;50.63;98617.73;111781;1254;23676;-70
2024/04/01 07:21:19;;;;;;;42.70;10.80;;;;;;;16.31;50.32;98619.76;111280;1254;22721;-69
2024/04/01 07:23:49;;;;;;;41.20;10.80;;;;;;;16.47;49.85;98623.31;111285;1254;21998;-71
2024/04/01 07:26:18;;;;;;;45.60;11.70;;;;;;;16.60;49.23;98626.08;111335;1252;21974;-69
2024/04/01 07:28:46;;;;;;;42.90;11.80;;;;;;;16.69;49.06;98625.48;111248;1254;21990;-70
2024/04/01 07:31:15;;;;;;;43.10;12.70;;;;;;;16.69;48.99;98626.48;111272;1254;21952;-80
2024/04/01 07:33:44;;;;;;;37.80;11.40;;;;;;;16.64;49.04;98634.28;111203;1253;22969;-70
2024/04/01 07:36:13;;;;;;;46.40;10.90;;;;;;;16.63;49.14;98640.79;111258;1253;24100;-70
2024/04/01 07:38:41;;;;;;;41.70;10.70;;;;;;;16.68;49.13;98638.76;111286;1251;21948;-70
2024/04/01 07:41:10;;;;;;;43.40;11.20;;;;;;;16.79;48.98;98635.63;111378;1253;23013;-69
2024/04/01 07:43:38;;;;;;;43.30;11.50;;;;;;;16.98;48.74;98639.80;111308;1253;21955;-69
2024/04/01 07:46:07;;;;;;;42.60;10.70;;;;;;;17.21;48.25;98642.14;111344;1253;21959;-69
2024/04/01 07:48:37;;;;;;;51.30;10.20;;;;;;;17.39;47.83;98647.64;111312;1253;24096;-69
2024/04/01 07:51:06;;;;;;;40.00;9.80;;;;;;;17.47;47.72;98653.45;111279;1253;21957;-69
2024/04/01 07:53:35;;;;;;;48.80;11.30;;;;;;;17.54;47.70;98654.48;111294;1253;21977;-69
2024/04/01 07:56:05;;;;;;;52.50;11.50;;;;;;;17.75;47.32;98663.05;111311;1253;21962;-69
2024/04/01 07:58:33;;;;;;;48.70;11.60;;;;;;;17.98;46.72;98671.19;111280;1253;24303;-69
2024/04/01 08:01:06;;;;;;;55.80;17.80;;;;;;;18.21;46.29;98671.56;111328;1253;23673;-70
2024/04/01 08:03:35;;;;;;;40.70;12.70;;;;;;;18.36;46.00;98676.45;111333;1253;21950;-70
2024/04/01 08:06:05;;;;;;;50.30;13.30;;;;;;;18.37;45.95;98676.34;111329;1253;21959;-68
2024/04/01 08:08:34;;;;;;;51.10;12.20;;;;;;;18.36;45.94;98671.10;111395;1253;22410;-69
2024/04/01 08:11:03;;;;;;;57.20;12.40;;;;;;;18.54;46.09;98671.26;111288;1253;21957;-69
2024/04/01 08:13:31;;;;;;;50.70;13.80;;;;;;;19.03;45.24;98672.11;111312;1251;22060;-70
2024/04/01 08:16:02;;;;;;;44.20;11.90;;;;;;;19.44;43.97;98662.95;111292;1253;21968;-68
2024/04/01 08:18:31;;;;;;;55.50;13.90;;;;;;;19.63;43.79;98660.96;111386;1253;22936;-69
2024/04/01 08:21:00;;;;;;;46.20;12.20;;;;;;;19.74;43.05;98654.41;111323;1247;23058;-69
2024/04/01 08:23:30;;;;;;;56.20;13.90;;;;;;;19.69;43.33;98645.02;111283;1253;23773;-69
2024/04/01 08:25:59;;;;;;;52.30;18.90;;;;;;;19.70;43.43;98647.61;111312;1253;21968;-69
2024/04/01 08:28:28;;;;;;;47.10;13.00;;;;;;;19.71;43.40;98649.68;111299;1253;23730;-68
2024/04/01 08:30:56;;;;;;;57.10;13.20;;;;;;;19.69;43.42;98646.44;111301;1253;23010;-70
2024/04/01 08:33:25;;;;;;;59.50;14.90;;;;;;;19.81;43.03;98637.59;111381;1253;21953;-70
2024/04/01 08:35:54;;;;;;;59.30;14.20;;;;;;;20.01;42.81;98627.77;111295;1253;22128;-69
2024/04/01 08:38:23;;;;;;;47.60;13.50;;;;;;;20.47;42.02;98617.67;111001;1253;24975;-70
2024/04/01 08:41:14;;;;;;;57.30;13.10;;;;;;;21.03;40.83;98609.02;111321;1253;21995;-69
2024/04/01 08:44:16;;;;;;;53.80;13.30;;;;;;;21.73;40.38;98609.36;111297;1253;23465;-69
2024/04/01 08:46:49;;;;;;;54.00;14.90;;;;;;;22.28;38.96;98604.08;110728;1260;22048;-70
2024/04/01 08:50:01;;;;;;;46.00;11.90;;;;;;;22.84;37.85;98604.00;110325;1248;22015;-69
2024/04/01 08:52:42;;;;;;;58.20;13.30;;;;;;;23.29;36.91;98601.92;110716;1260;22858;-69
2024/04/01 08:55:11;;;;;;;53.70;12.00;;;;;;;23.44;36.06;98588.13;110656;1260;23630;-68
2024/04/01 08:57:40;;;;;;;49.20;13.80;;;;;;;23.49;36.27;98577.59;110672;1260;23075;-68
2024/04/01 09:00:10;;;;;;;60.60;13.00;;;;;;;23.56;35.38;98575.11;110685;1260;23537;-69
2024/04/01 09:02:39;;;;;;;60.50;14.90;;;;;;;23.48;35.74;98566.58;110705;1260;23605;-68
2024/04/01 09:05:08;;;;;;;58.80;14.30;;;;;;;23.35;35.67;98553.08;110696;1260;23749;-69
2024/04/01 09:07:37;;;;;;;61.70;14.90;;;;;;;23.52;35.40;98533.64;110699;1260;21934;-69
2024/04/01 09:10:06;;;;;;;47.40;12.90;;;;;;;23.75;35.12;98525.01;110688;1260;23653;-68
2024/04/01 09:12:34;;;;;;;62.20;12.90;;;;;;;23.57;34.93;98531.39;110656;1260;21975;-71
2024/04/01 09:15:11;;;;;;;55.40;14.80;;;;;;;23.18;35.33;98538.95;110688;1260;23035;-67
2024/04/01 09:17:40;;;;;;;49.50;13.00;;;;;;;22.83;36.02;98533.76;110739;1260;21986;-68
2024/04/01 09:20:09;;;;;;;55.60;13.20;;;;;;;22.51;36.55;98530.23;110696;1260;23678;-68
2024/04/01 09:22:37;;;;;;;60.80;15.50;;;;;;;22.36;36.83;98527.85;110871;1253;21961;-70
2024/04/01 09:25:06;;;;;;;54.10;15.30;;;;;;;22.34;37.07;98523.40;111308;1253;21988;-68
2024/04/01 09:27:35;;;;;;;49.50;14.80;;;;;;;22.36;37.06;98527.02;111393;1253;23667;-69
2024/04/01 09:30:04;;;;;;;61.60;15.60;;;;;;;22.17;37.12;98536.32;111329;1253;23598;-69
2024/04/01 09:32:33;;;;;;;70.80;15.70;;;;;;;21.82;37.61;98537.23;111257;1253;21959;-70
2024/04/01 09:35:02;;;;;;;62.70;17.00;;;;;;;21.63;38.11;98533.92;111351;1251;21952;-69
2024/04/01 09:37:31;;;;;;;70.70;16.90;;;;;;;21.59;38.53;98542.39;111300;1248;23625;-68
2024/04/01 09:40:00;;;;;;;67.10;16.50;;;;;;;21.48;38.49;98544.49;111277;1253;23574;-70
2024/04/01 09:42:29;;;;;;;66.70;15.20;;;;;;;21.30;38.93;98540.72;111398;1253;21967;-70
2024/04/01 09:44:57;;;;;;;72.40;16.80;;;;;;;21.21;39.32;98539.59;112083;1253;22015;-69
2024/04/01 09:47:26;;;;;;;64.10;15.50;;;;;;;21.21;39.37;98540.25;111301;1253;21975;-67
2024/04/01 09:49:57;;;;;;;59.00;15.30;;;;;;;21.35;39.19;98537.87;111211;1253;181148;-67
2024/04/01 09:52:25;;;;;;;62.90;15.80;;;;;;;21.43;39.05;98530.08;111321;1253;24106;-71
2024/04/01 09:55:04;;;;;;;69.70;16.10;;;;;;;21.42;39.02;98533.84;111292;1253;22022;-69
2024/04/01 09:58:32;;;;;;;51.70;15.40;;;;;;;21.36;39.07;98546.54;111320;1253;22728;-71
2024/04/01 10:01:07;;;;;;;76.20;17.20;;;;;;;21.23;39.45;98564.27;111304;1253;21964;-72
2024/04/01 10:04:27;;;;;;;73.40;16.50;;;;;;;21.24;39.51;98569.06;111299;1247;21964;-70
2024/04/01 10:07:26;;;;;;;58.70;16.40;;;;;;;21.27;39.45;98564.34;111307;1253;23673;-71
2024/04/01 10:10:08;;;;;;;76.30;18.90;;;;;;;21.47;39.33;98566.65;111296;1253;23480;-71
2024/04/01 10:12:55;;;;;;;66.80;14.80;;;;;;;21.75;39.08;98568.89;111334;1253;21974;-72
2024/04/01 10:15:59;;;;;;;59.50;16.80;;;;;;;22.07;38.94;98562.78;111342;1253;21952;-69
2024/04/01 10:18:55;;;;;;;70.50;16.00;;;;;;;22.24;38.46;98540.38;111412;1253;23294;-71
2024/04/01 10:21:42;;;;;;;81.20;25.60;;;;;;;22.24;38.06;98527.17;111296;1253;21959;-75
2024/04/01 10:24:36;;;;;;;62.60;16.70;;;;;;;22.18;38.28;98513.56;111419;1253;22033;-72
2024/04/01 10:27:52;;;;;;;66.20;16.60;;;;;;;22.12;38.23;98500.57;111275;1253;22838;-73
2024/04/01 10:30:55;;;;;;;70.20;15.90;;;;;;;21.90;38.38;98501.93;110573;1262;21959;-73
2024/04/01 10:34:01;;;;;;;62.50;15.60;;;;;;;21.85;38.36;98500.50;110543;1259;22090;-73
2024/04/01 10:37:24;;;;;;;65.20;15.50;;;;;;;21.86;38.09;98503.60;110534;1262;23658;-72
2024/04/01 10:40:44;;;;;;;59.60;14.50;;;;;;;21.94;37.89;98509.04;110528;1263;22483;-72
2024/04/01 10:44:03;;;;;;;67.50;15.10;;;;;;;22.24;37.15;98503.02;110550;1263;23032;-74
2024/04/01 10:46:56;;;;;;;63.50;13.40;;;;;;;22.58;36.92;98496.95;110516;1263;23618;-73
2024/04/01 10:50:06;;;;;;;60.80;15.30;;;;;;;22.75;36.50;98490.35;110515;1264;23608;-73
2024/04/01 10:53:09;;;;;;;64.00;16.00;;;;;;;22.77;36.46;98484.27;109795;1270;21991;-73
2024/04/01 10:56:12;;;;;;;61.80;15.10;;;;;;;22.72;36.59;98480.08;109796;1270;22162;-73
2024/04/01 10:59:01;;;;;;;71.30;16.10;;;;;;;22.64;36.48;98495.27;109788;1270;21981;-73
2024/04/01 11:02:31;;;;;;;61.80;15.90;;;;;;;22.63;36.23;98502.20;109817;1270;21991;-73
2024/04/01 11:05:56;;;;;;;68.10;16.50;;;;;;;22.74;36.26;98500.80;109709;1270;22759;-69
2024/04/01 11:09:13;;;;;;;60.20;15.70;;;;;;;23.06;35.66;98488.74;110114;1265;23037;-73
2024/04/01 11:12:11;;;;;;;70.00;14.70;;;;;;;23.19;35.57;98470.63;109513;1271;24594;-71
2024/04/01 11:14:43;;;;;;;61.60;14.70;;;;;;;23.34;35.54;98453.23;109639;1267;21969;-71
2024/04/01 11:17:11;;;;;;;67.00;17.90;;;;;;;23.32;35.45;98444.67;110194;1266;21970;-70
2024/04/01 11:20:00;;;;;;;73.20;17.70;;;;;;;23.23;35.47;98434.58;110262;1267;21987;-70
2024/04/01 11:22:48;;;;;;;54.40;14.50;;;;;;;23.07;35.86;98430.02;110221;1266;23035;-71
2024/04/01 11:25:47;;;;;;;64.00;24.60;;;;;;;23.01;36.13;98427.60;110235;1266;22001;-71
2024/04/01 11:28:41;;;;;;;61.00;15.30;;;;;;;22.97;36.29;98415.40;110216;1266;22832;-71
2024/04/01 11:31:18;;;;;;;72.30;15.90;;;;;;;23.00;36.35;98414.17;110564;1262;23608;-71
2024/04/01 11:34:19;;;;;;;63.10;15.10;;;;;;;23.04;36.09;98413.89;110314;1261;22732;-72
2024/04/01 11:37:24;;;;;;;58.60;13.70;;;;;;;22.97;35.96;98418.73;109947;1261;23588;-72